createdAt,value
2023-04-26T00:02:21.184Z,89.28
2023-04-26T00:04:47.885Z,87.57
2023-04-26T00:07:14.510Z,93.57
2023-04-26T00:09:41.009Z,90.63
2023-04-26T00:12:07.511Z,86.99
2023-04-26T00:14:34.016Z,87.45
2023-04-26T00:17:00.522Z,87.50
2023-04-26T00:19:27.009Z,87.73
2023-04-26T00:21:53.549Z,85.24
2023-04-26T00:24:20.085Z,86.57
2023-04-26T00:26:46.557Z,85.19
2023-04-26T00:29:13.046Z,86.35
2023-04-26T00:31:39.588Z,86.52
2023-04-26T00:34:06.093Z,83.31
2023-04-26T00:36:32.576Z,83.34
2023-04-26T00:38:59.075Z,84.11
2023-04-26T00:41:25.539Z,85.18
2023-04-26T00:43:52.074Z,85.37
2023-04-26T00:46:18.681Z,81.39
2023-04-26T00:48:45.143Z,85.39
2023-04-26T00:51:11.659Z,83.93
2023-04-26T00:53:38.245Z,84.90
2023-04-26T00:56:04.916Z,81.30
2023-04-26T00:58:31.524Z,80.59
2023-04-26T01:00:58.078Z,80.97
2023-04-26T01:03:24.806Z,82.88
2023-04-26T01:05:51.521Z,82.63
2023-04-26T01:08:18.034Z,81.38
2023-04-26T01:10:44.512Z,83.93
2023-04-26T01:13:10.991Z,77.15
2023-04-26T01:15:37.539Z,79.93
2023-04-26T01:18:04.038Z,79.14
2023-04-26T01:20:30.595Z,77.59
2023-04-26T01:22:57.131Z,76.05
2023-04-26T01:25:23.610Z,78.63
2023-04-26T01:27:50.152Z,76.68
2023-04-26T01:30:16.648Z,78.26
2023-04-26T01:32:46.248Z,76.51
2023-04-26T01:35:12.675Z,76.45
2023-04-26T01:37:39.138Z,77.47
2023-04-26T01:40:05.631Z,79.24
2023-04-26T01:42:32.148Z,75.11
2023-04-26T01:44:58.604Z,77.26
2023-04-26T01:47:25.042Z,76.68
2023-04-26T01:49:51.556Z,74.83
2023-04-26T01:52:17.997Z,75.11
2023-04-26T01:54:44.536Z,75.34
2023-04-26T01:57:11.109Z,73.77
2023-04-26T01:59:37.630Z,73.21
2023-04-26T02:02:04.157Z,73.58
2023-04-26T02:04:30.719Z,71.54
2023-04-26T02:06:57.333Z,74.19
2023-04-26T02:09:23.975Z,72.75
2023-04-26T02:11:50.429Z,73.85
2023-04-26T02:14:16.866Z,70.32
2023-04-26T02:16:43.365Z,73.06
2023-04-26T02:19:09.894Z,69.97
2023-04-26T02:21:36.441Z,72.22
2023-04-26T02:24:02.979Z,71.87
2023-04-26T02:26:29.509Z,70.40
2023-04-26T02:28:55.977Z,71.97
2023-04-26T02:31:23.246Z,73.14
2023-04-26T02:33:49.996Z,70.20
2023-04-26T02:36:16.464Z,69.91
2023-04-26T02:38:42.964Z,67.01
2023-04-26T02:41:09.520Z,66.31
2023-04-26T02:43:36.074Z,67.12
2023-04-26T02:46:02.585Z,67.63
2023-04-26T02:48:29.160Z,67.19
2023-04-26T02:50:55.694Z,67.45
2023-04-26T02:53:22.232Z,67.95
2023-04-26T02:55:48.761Z,64.87
2023-04-26T02:58:15.287Z,63.24
2023-04-26T03:00:41.788Z,65.67
2023-04-26T03:03:08.554Z,65.32
2023-04-26T03:05:35.198Z,67.63
2023-04-26T03:08:01.779Z,65.96
2023-04-26T03:10:28.392Z,64.17
2023-04-26T03:12:54.987Z,62.49
2023-04-26T03:15:21.519Z,61.33
2023-04-26T03:17:48.050Z,62.05
2023-04-26T03:20:14.678Z,60.32
2023-04-26T03:22:41.188Z,64.68
2023-04-26T03:25:07.750Z,61.43
2023-04-26T03:27:34.254Z,63.98
2023-04-26T03:30:00.726Z,65.69
2023-04-26T03:32:27.291Z,60.06
2023-04-26T03:34:53.906Z,62.56
2023-04-26T03:37:20.344Z,62.44
2023-04-26T03:39:46.767Z,59.92
2023-04-26T03:42:13.275Z,62.40
2023-04-26T03:44:39.744Z,62.74
2023-04-26T03:47:06.233Z,58.97
2023-04-26T03:49:32.705Z,60.06
2023-04-26T03:51:59.314Z,57.95
2023-04-26T03:54:25.836Z,57.14
2023-04-26T03:56:52.321Z,59.61
2023-04-26T03:59:18.931Z,60.24
2023-04-26T04:01:45.416Z,58.06
2023-04-26T04:04:12.185Z,57.82
2023-04-26T04:06:38.900Z,57.62
2023-04-26T04:09:05.433Z,59.92
2023-04-26T04:11:31.911Z,57.09
2023-04-26T04:13:58.440Z,57.46
2023-04-26T04:16:25.040Z,56.30
2023-04-26T04:18:51.900Z,55.83
2023-04-26T04:21:18.584Z,54.90
2023-04-26T04:23:45.071Z,57.35
2023-04-26T04:26:11.534Z,56.10
2023-04-26T04:28:38.049Z,54.73
2023-04-26T04:31:04.602Z,55.41
2023-04-26T04:33:31.144Z,54.60
2023-04-26T04:35:57.686Z,53.91
2023-04-26T04:38:24.087Z,53.12
2023-04-26T04:40:50.547Z,54.47
2023-04-26T04:43:17.084Z,51.96
2023-04-26T04:45:43.591Z,51.83
2023-04-26T04:48:10.089Z,51.78
2023-04-26T04:50:36.581Z,52.19
2023-04-26T04:53:03.129Z,49.04
2023-04-26T04:55:29.708Z,50.32
2023-04-26T04:57:56.135Z,53.66
2023-04-26T05:00:22.584Z,53.11
2023-04-26T05:02:49.230Z,48.02
2023-04-26T05:05:15.913Z,48.48
2023-04-26T05:07:42.508Z,50.14
2023-04-26T05:10:08.981Z,48.93
2023-04-26T05:12:35.488Z,47.50
2023-04-26T05:15:01.965Z,53.40
2023-04-26T05:17:28.457Z,53.48
2023-04-26T05:19:55.012Z,50.93
2023-04-26T05:22:21.490Z,51.68
2023-04-26T05:24:48.024Z,51.83
2023-04-26T05:27:14.620Z,53.31
2023-04-26T05:29:41.133Z,51.28
2023-04-26T05:32:07.698Z,50.80
2023-04-26T05:34:34.250Z,48.28
2023-04-26T05:37:00.748Z,50.09
2023-04-26T05:39:27.232Z,50.62
2023-04-26T05:41:53.727Z,46.33
2023-04-26T05:44:20.308Z,49.73
2023-04-26T05:46:46.808Z,49.54
2023-04-26T05:49:13.336Z,49.52
2023-04-26T05:51:39.786Z,49.26
2023-04-26T05:54:06.292Z,49.45
2023-04-26T05:56:32.768Z,46.66
2023-04-26T05:58:59.363Z,48.22
2023-04-26T06:01:25.825Z,49.85
2023-04-26T06:03:54.369Z,47.51
2023-04-26T06:06:22.638Z,46.82
2023-04-26T06:08:49.116Z,49.18
2023-04-26T06:11:15.696Z,46.36
2023-04-26T06:13:42.204Z,47.15
2023-04-26T06:16:08.685Z,46.24
2023-04-26T06:18:35.142Z,45.31
2023-04-26T06:21:01.666Z,45.56
2023-04-26T06:23:28.183Z,46.54
2023-04-26T06:25:54.656Z,41.37
2023-04-26T06:28:21.137Z,43.76
2023-04-26T06:30:47.622Z,43.93
2023-04-26T06:33:14.241Z,42.86
2023-04-26T06:35:40.747Z,42.22
2023-04-26T06:38:07.273Z,43.60
2023-04-26T06:40:33.784Z,41.73
2023-04-26T06:43:00.209Z,41.41
2023-04-26T06:45:26.743Z,40.86
2023-04-26T06:47:53.250Z,42.37
2023-04-26T06:50:19.766Z,41.15
2023-04-26T06:52:46.271Z,41.15
2023-04-26T06:55:12.757Z,41.17
2023-04-26T06:57:40.299Z,43.61
2023-04-26T07:00:06.810Z,40.78
2023-04-26T07:02:33.378Z,39.60
2023-04-26T07:04:59.965Z,40.32
2023-04-26T07:07:26.577Z,39.86
2023-04-26T07:09:53.062Z,38.70
2023-04-26T07:12:19.482Z,38.74
2023-04-26T07:14:45.965Z,39.08
2023-04-26T07:17:12.566Z,40.87
2023-04-26T07:19:39.087Z,38.54
2023-04-26T07:22:05.579Z,40.32
2023-04-26T07:24:32.000Z,37.19
2023-04-26T07:26:58.496Z,38.38
2023-04-26T07:29:25.043Z,37.84
2023-04-26T07:31:51.552Z,38.95
2023-04-26T07:34:17.998Z,38.75
2023-04-26T07:36:44.436Z,39.47
2023-04-26T07:39:10.895Z,36.35
2023-04-26T07:41:37.380Z,35.95
2023-04-26T07:44:05.079Z,39.16
2023-04-26T07:46:31.594Z,38.76
2023-04-26T07:48:58.097Z,35.05
2023-04-26T07:51:24.522Z,37.50
2023-04-26T07:53:51.168Z,37.33
2023-04-26T07:56:17.783Z,35.48
2023-04-26T07:58:44.279Z,34.71
2023-04-26T08:01:10.803Z,34.45
2023-04-26T08:03:37.604Z,34.17
2023-04-26T08:06:04.384Z,32.82
2023-04-26T08:08:30.862Z,34.99
2023-04-26T08:10:57.373Z,33.11
2023-04-26T08:13:24.128Z,33.52
2023-04-26T08:15:51.678Z,31.49
2023-04-26T08:18:18.289Z,32.24
2023-04-26T08:20:44.738Z,30.52
2023-04-26T08:23:11.285Z,33.10
2023-04-26T08:25:37.808Z,32.37
2023-04-26T08:28:04.360Z,32.33
2023-04-26T08:30:30.844Z,30.64
2023-04-26T08:32:57.419Z,29.10
2023-04-26T08:35:23.922Z,30.88
2023-04-26T08:37:50.363Z,30.00
2023-04-26T08:40:16.857Z,30.45
2023-04-26T08:42:43.329Z,29.66
2023-04-26T08:45:09.761Z,29.47
2023-04-26T08:47:36.300Z,28.84
2023-04-26T08:50:02.771Z,29.87
2023-04-26T08:52:29.309Z,29.39
2023-04-26T08:54:55.836Z,28.96
2023-04-26T08:57:22.287Z,29.03
2023-04-26T08:59:48.771Z,28.67
2023-04-26T09:02:15.306Z,30.39
2023-04-26T09:04:41.970Z,27.35
2023-04-26T09:07:08.619Z,30.43
2023-04-26T09:09:35.123Z,27.03
2023-04-26T09:12:01.593Z,28.80
2023-04-26T09:14:28.169Z,28.02
2023-04-26T09:16:54.609Z,28.22
2023-04-26T09:19:21.173Z,29.29
2023-04-26T09:21:47.705Z,27.25
2023-04-26T09:24:14.149Z,26.95
2023-04-26T09:26:40.619Z,26.18
2023-04-26T09:29:07.142Z,26.44
2023-04-26T09:31:33.599Z,25.36
2023-04-26T09:34:00.136Z,28.12
2023-04-26T09:36:26.613Z,27.07
2023-04-26T09:38:53.224Z,25.75
2023-04-26T09:41:19.840Z,27.66
2023-04-26T09:43:46.282Z,26.35
2023-04-26T09:46:12.769Z,26.96
2023-04-26T09:48:39.244Z,25.66
2023-04-26T09:51:05.649Z,28.24
2023-04-26T09:53:32.143Z,24.99
2023-04-26T09:55:58.707Z,25.42
2023-04-26T09:58:25.134Z,25.34
2023-04-26T10:00:51.755Z,25.98
2023-04-26T10:03:18.468Z,26.80
2023-04-26T10:05:45.189Z,26.92
2023-04-26T10:08:11.708Z,25.92
2023-04-26T10:10:38.509Z,26.03
2023-04-26T10:13:05.069Z,26.68
2023-04-26T10:15:31.513Z,25.97
2023-04-26T10:17:57.977Z,26.54
2023-04-26T10:20:24.460Z,26.85
2023-04-26T10:22:50.966Z,26.38
2023-04-26T10:25:17.489Z,26.41
2023-04-26T10:27:44.004Z,26.05
2023-04-26T10:30:10.452Z,25.09
2023-04-26T10:32:36.938Z,134.88
2023-04-26T10:35:03.368Z,560.86
2023-04-26T10:37:29.838Z,611.71
2023-04-26T10:39:56.334Z,509.72
2023-04-26T10:42:24.141Z,512.36
2023-04-26T10:44:51.532Z,485.12
2023-04-26T10:47:18.066Z,455.51
2023-04-26T10:49:44.663Z,434.80
2023-04-26T10:52:11.273Z,384.30
2023-04-26T10:54:37.877Z,378.71
2023-04-26T10:57:04.390Z,412.18
2023-04-26T10:59:43.188Z,396.51
2023-04-26T11:02:10.725Z,365.15
2023-04-26T11:04:37.300Z,331.38
2023-04-26T11:07:04.038Z,294.30
2023-04-26T11:09:30.541Z,248.56
2023-04-26T11:11:56.991Z,175.24
2023-04-26T11:14:26.013Z,139.51
2023-04-26T11:16:54.564Z,154.37
2023-04-26T11:19:21.201Z,135.26
2023-04-26T11:21:47.741Z,105.05
2023-04-26T11:24:14.246Z,88.24
2023-04-26T11:26:40.879Z,77.83
2023-04-26T11:29:07.395Z,77.42
2023-04-26T11:31:33.972Z,56.31
2023-04-26T11:34:00.540Z,39.60
2023-04-26T11:36:27.111Z,51.10
2023-04-26T11:38:53.759Z,46.09
2023-04-26T11:41:20.357Z,44.34
2023-04-26T11:43:47.136Z,45.35
2023-04-26T11:46:13.688Z,42.61
2023-04-26T11:48:40.192Z,38.87
2023-04-26T11:51:06.839Z,34.73
2023-04-26T11:53:33.362Z,33.76
2023-04-26T11:55:59.901Z,32.78
2023-04-26T11:58:26.395Z,26.23
2023-04-26T12:00:52.832Z,24.52
2023-04-26T12:03:19.522Z,26.01
2023-04-26T12:05:46.126Z,25.34
2023-04-26T12:08:12.735Z,23.25
2023-04-26T12:10:39.304Z,22.65
2023-04-26T12:13:05.844Z,23.01
2023-04-26T12:15:32.441Z,23.08
2023-04-26T12:17:59.016Z,22.66
2023-04-26T12:20:25.534Z,18.54
2023-04-26T12:22:52.027Z,16.92
2023-04-26T12:25:18.491Z,14.91
2023-04-26T12:27:45.073Z,14.56
2023-04-26T12:30:11.647Z,14.83
2023-04-26T12:32:38.203Z,15.63
2023-04-26T12:35:04.727Z,15.52
2023-04-26T12:37:31.191Z,15.61
2023-04-26T12:39:57.753Z,16.02
2023-04-26T12:42:24.299Z,16.06
2023-04-26T12:44:50.766Z,13.90
2023-04-26T12:47:17.426Z,15.55
2023-04-26T12:49:43.905Z,13.76
2023-04-26T12:52:10.388Z,14.26
2023-04-26T12:54:37.013Z,14.02
2023-04-26T12:57:03.588Z,13.15
2023-04-26T12:59:30.089Z,14.47
2023-04-26T13:01:56.712Z,12.89
2023-04-26T13:04:23.579Z,13.12
2023-04-26T13:06:50.246Z,13.96
2023-04-26T13:09:16.794Z,13.16
2023-04-26T13:11:43.372Z,13.48
2023-04-26T13:14:09.905Z,13.25
2023-04-26T13:16:36.491Z,13.29
2023-04-26T13:19:03.220Z,12.52
2023-04-26T13:21:29.823Z,13.57
2023-04-26T13:23:56.412Z,13.22
2023-04-26T13:26:22.924Z,12.76
2023-04-26T13:28:49.491Z,13.17
2023-04-26T13:31:16.122Z,12.47
2023-04-26T13:33:42.635Z,13.33
2023-04-26T13:36:09.138Z,13.47
2023-04-26T13:38:35.699Z,12.59
2023-04-26T13:41:02.215Z,13.07
2023-04-26T13:43:28.735Z,12.87
2023-04-26T13:45:55.325Z,12.92
2023-04-26T13:48:22.023Z,13.17
2023-04-26T13:50:48.546Z,12.83
2023-04-26T13:53:15.047Z,13.35
2023-04-26T13:55:41.484Z,12.83
2023-04-26T13:58:07.946Z,13.21
2023-04-26T14:00:34.464Z,12.95
2023-04-26T14:03:01.160Z,12.88
2023-04-26T14:05:27.692Z,13.49
2023-04-26T14:07:55.295Z,14.10
2023-04-26T14:10:21.888Z,12.28
2023-04-26T14:12:48.338Z,14.31
2023-04-26T14:15:14.832Z,12.81
2023-04-26T14:17:41.340Z,12.40
2023-04-26T14:20:07.831Z,12.15
2023-04-26T14:22:34.327Z,12.93
2023-04-26T14:25:00.849Z,12.78
2023-04-26T14:27:27.376Z,12.15
2023-04-26T14:29:53.982Z,12.63
2023-04-26T14:32:20.496Z,12.93
2023-04-26T14:34:47.003Z,12.11
2023-04-26T14:37:13.504Z,11.96
2023-04-26T14:39:40.065Z,12.12
2023-04-26T14:42:06.644Z,12.18
2023-04-26T14:44:33.122Z,11.40
2023-04-26T14:46:59.644Z,11.85
2023-04-26T14:49:26.290Z,12.14
2023-04-26T14:51:53.701Z,12.27
2023-04-26T14:54:20.420Z,12.49
2023-04-26T14:56:46.932Z,13.56
2023-04-26T14:59:13.446Z,11.03
2023-04-26T15:01:39.988Z,12.14
2023-04-26T15:04:06.604Z,12.52
2023-04-26T15:06:33.284Z,12.41
2023-04-26T15:08:59.895Z,13.18
2023-04-26T15:11:26.423Z,13.84
2023-04-26T15:13:52.947Z,12.18
2023-04-26T15:16:19.484Z,14.11
2023-04-26T15:18:46.018Z,12.50
2023-04-26T15:21:12.706Z,13.73
2023-04-26T15:23:39.283Z,12.93
2023-04-26T15:26:05.827Z,13.78
2023-04-26T15:28:32.337Z,14.98
2023-04-26T15:30:58.892Z,13.22
2023-04-26T15:33:25.379Z,13.81
2023-04-26T15:35:51.825Z,13.82
2023-04-26T15:38:18.356Z,13.62
2023-04-26T15:40:44.906Z,13.36
2023-04-26T15:43:11.378Z,16.51
2023-04-26T15:45:37.891Z,15.64
2023-04-26T15:48:04.429Z,14.64
2023-04-26T15:50:30.967Z,12.66
2023-04-26T15:52:57.485Z,14.06
2023-04-26T15:55:23.997Z,14.71
2023-04-26T15:57:50.422Z,15.17
2023-04-26T16:00:16.899Z,14.78
2023-04-26T16:02:43.564Z,14.34
2023-04-26T16:05:10.202Z,14.87
2023-04-26T16:07:36.774Z,14.65
2023-04-26T16:10:03.281Z,14.97
2023-04-26T16:12:29.789Z,14.15
2023-04-26T16:14:56.286Z,13.74
2023-04-26T16:17:22.789Z,14.57
2023-04-26T16:19:49.314Z,14.07
2023-04-26T16:22:15.893Z,13.05
2023-04-26T16:24:42.478Z,14.05
2023-04-26T16:27:09.025Z,16.05
2023-04-26T16:29:35.745Z,14.88
2023-04-26T16:32:02.217Z,15.44
2023-04-26T16:34:28.702Z,13.65
2023-04-26T16:36:55.249Z,13.66
2023-04-26T16:39:21.694Z,14.39
2023-04-26T16:41:48.223Z,14.95
2023-04-26T16:44:14.757Z,13.55
2023-04-26T16:46:41.302Z,14.31
2023-04-26T16:49:07.925Z,15.15
2023-04-26T16:51:34.523Z,15.88
2023-04-26T16:54:01.124Z,14.95
2023-04-26T16:56:27.640Z,15.29
2023-04-26T16:58:54.221Z,15.98
2023-04-26T17:01:20.785Z,15.67
2023-04-26T17:03:47.636Z,14.18
2023-04-26T17:06:14.227Z,15.77
2023-04-26T17:08:40.735Z,15.48
2023-04-26T17:11:07.305Z,23.35
2023-04-26T17:13:33.832Z,38.50
2023-04-26T17:16:00.312Z,40.20
2023-04-26T17:18:26.852Z,43.48
2023-04-26T17:20:53.370Z,41.85
2023-04-26T17:23:20.119Z,43.99
2023-04-26T17:25:47.641Z,45.94
2023-04-26T17:28:14.427Z,43.91
2023-04-26T17:30:40.910Z,45.67
2023-04-26T17:33:07.557Z,46.39
2023-04-26T17:35:34.265Z,55.21
2023-04-26T17:38:00.735Z,61.40
2023-04-26T17:40:27.216Z,60.69
2023-04-26T17:42:53.659Z,56.61
2023-04-26T17:45:20.083Z,54.66
2023-04-26T17:47:46.531Z,52.15
2023-04-26T17:50:13.027Z,53.25
2023-04-26T17:52:39.572Z,50.99
2023-04-26T17:55:06.069Z,45.80
2023-04-26T17:57:32.602Z,46.52
2023-04-26T17:59:59.080Z,45.32
2023-04-26T18:02:25.710Z,47.48
2023-04-26T18:04:52.498Z,45.41
2023-04-26T18:07:19.285Z,43.55
2023-04-26T18:09:45.815Z,44.67
2023-04-26T18:12:12.359Z,42.89
2023-04-26T18:14:38.863Z,42.76
2023-04-26T18:17:05.462Z,40.25
2023-04-26T18:19:32.051Z,41.76
2023-04-26T18:21:58.519Z,39.02
2023-04-26T18:24:25.003Z,37.99
2023-04-26T18:26:51.410Z,38.61
2023-04-26T18:29:17.933Z,37.65
2023-04-26T18:31:44.420Z,36.92
2023-04-26T18:34:10.968Z,36.69
2023-04-26T18:36:37.492Z,34.39
2023-04-26T18:39:04.013Z,32.50
2023-04-26T18:41:30.472Z,33.16
2023-04-26T18:43:57.150Z,28.71
2023-04-26T18:46:23.721Z,27.65
2023-04-26T18:48:50.232Z,29.73
2023-04-26T18:51:16.704Z,30.68
2023-04-26T18:53:43.127Z,32.49
2023-04-26T18:56:09.653Z,29.45
2023-04-26T18:58:36.226Z,30.54
2023-04-26T19:01:03.213Z,30.08
2023-04-26T19:03:29.771Z,31.83
2023-04-26T19:05:56.362Z,31.11
2023-04-26T19:08:22.866Z,31.28
2023-04-26T19:10:49.359Z,30.77
2023-04-26T19:13:15.870Z,30.76
2023-04-26T19:15:42.381Z,30.63
2023-04-26T19:18:08.933Z,33.20
2023-04-26T19:20:35.455Z,102.37
2023-04-26T19:23:01.987Z,146.63
2023-04-26T19:25:28.532Z,155.74
2023-04-26T19:27:55.111Z,145.27
2023-04-26T19:30:21.580Z,120.02
2023-04-26T19:32:48.150Z,112.26
2023-04-26T19:35:14.767Z,110.70
2023-04-26T19:37:41.336Z,111.39
2023-04-26T19:40:07.770Z,112.48
2023-04-26T19:42:34.227Z,106.53
2023-04-26T19:45:00.760Z,101.01
2023-04-26T19:47:27.392Z,102.42
2023-04-26T19:49:53.875Z,99.49
2023-04-26T19:52:20.434Z,96.41
2023-04-26T19:54:46.869Z,89.79
2023-04-26T19:57:13.410Z,91.25
2023-04-26T19:59:39.972Z,91.24
2023-04-26T20:02:06.971Z,88.49
2023-04-26T20:04:33.512Z,85.72
2023-04-26T20:07:00.146Z,80.92
2023-04-26T20:09:26.794Z,77.54
2023-04-26T20:11:53.352Z,81.05
2023-04-26T20:14:19.814Z,79.01
2023-04-26T20:16:46.367Z,79.93
2023-04-26T20:19:13.219Z,76.56
2023-04-26T20:21:39.736Z,79.01
2023-04-26T20:24:06.280Z,77.59
2023-04-26T20:26:32.773Z,75.20
2023-04-26T20:28:59.295Z,73.07
2023-04-26T20:31:25.980Z,75.66
2023-04-26T20:33:52.566Z,73.99
2023-04-26T20:36:19.069Z,72.44
2023-04-26T20:38:45.646Z,73.74
2023-04-26T20:41:12.199Z,71.23
2023-04-26T20:43:38.737Z,69.88
2023-04-26T20:46:05.398Z,71.29
2023-04-26T20:48:31.904Z,71.92
2023-04-26T20:50:58.527Z,70.58
2023-04-26T20:53:25.221Z,70.45
2023-04-26T20:55:51.739Z,68.28
2023-04-26T20:58:18.322Z,68.43
2023-04-26T21:00:44.964Z,69.77
2023-04-26T21:03:11.620Z,68.38
2023-04-26T21:05:38.159Z,67.76
2023-04-26T21:08:04.752Z,66.54
2023-04-26T21:10:31.218Z,67.14
2023-04-26T21:12:57.779Z,67.58
2023-04-26T21:15:24.345Z,66.13
2023-04-26T21:17:50.963Z,66.81
2023-04-26T21:20:17.528Z,66.10
2023-04-26T21:22:44.077Z,64.18
2023-04-26T21:25:10.650Z,63.73
2023-04-26T21:27:37.162Z,64.49
2023-04-26T21:30:03.665Z,64.09
2023-04-26T21:32:30.176Z,64.10
2023-04-26T21:34:56.807Z,60.18
2023-04-26T21:37:23.361Z,60.78
2023-04-26T21:39:49.882Z,62.48
2023-04-26T21:42:16.452Z,61.40
2023-04-26T21:44:43.032Z,62.23
2023-04-26T21:47:09.707Z,60.69
2023-04-26T21:49:36.367Z,61.46
2023-04-26T21:52:02.869Z,61.01
2023-04-26T21:54:29.376Z,60.30
2023-04-26T21:56:55.989Z,59.38
2023-04-26T21:59:22.553Z,60.11
2023-04-26T22:01:49.116Z,57.09
2023-04-26T22:04:15.982Z,58.34
2023-04-26T22:06:42.604Z,57.98
2023-04-26T22:09:09.544Z,59.69
2023-04-26T22:11:36.321Z,57.43
2023-04-26T22:14:02.794Z,57.91
2023-04-26T22:16:29.387Z,60.23
2023-04-26T22:18:56.072Z,58.05
2023-04-26T22:21:22.717Z,56.03
2023-04-26T22:23:49.228Z,57.87
2023-04-26T22:26:15.760Z,57.91
2023-04-26T22:28:42.362Z,57.63
2023-04-26T22:31:08.962Z,55.90
2023-04-26T22:33:35.495Z,57.05
2023-04-26T22:36:01.995Z,57.56
2023-04-26T22:38:28.471Z,56.18
2023-04-26T22:40:55.073Z,52.49
2023-04-26T22:43:21.610Z,56.45
2023-04-26T22:45:48.223Z,55.57
2023-04-26T22:48:14.818Z,52.11
2023-04-26T22:50:41.311Z,54.92
2023-04-26T22:53:07.793Z,53.50
2023-04-26T22:55:34.285Z,54.49
2023-04-26T22:58:00.829Z,53.63
2023-04-26T23:00:27.404Z,55.46
2023-04-26T23:02:54.022Z,52.58
2023-04-26T23:05:20.628Z,51.22
2023-04-26T23:07:47.149Z,55.08
2023-04-26T23:10:13.625Z,53.00
2023-04-26T23:12:40.121Z,52.07
2023-04-26T23:15:06.651Z,50.55
2023-04-26T23:17:33.219Z,50.95
2023-04-26T23:19:59.722Z,51.47
2023-04-26T23:22:26.256Z,48.94
2023-04-26T23:24:52.835Z,51.43
2023-04-26T23:27:19.512Z,54.00
2023-04-26T23:29:46.065Z,51.51
2023-04-26T23:32:12.626Z,51.91
2023-04-26T23:34:39.204Z,49.89
2023-04-26T23:37:07.135Z,50.63
2023-04-26T23:39:34.573Z,50.46
2023-04-26T23:42:01.121Z,49.57
2023-04-26T23:44:27.652Z,50.10
2023-04-26T23:46:54.298Z,51.19
2023-04-26T23:49:20.867Z,49.62
2023-04-26T23:51:47.393Z,47.99
2023-04-26T23:54:13.896Z,48.67
2023-04-26T23:56:40.591Z,48.58
2023-04-26T23:59:07.119Z,50.50
